Time;durP1;ratioP1;P1;durP2;ratioP2;P2;SDS_P1;SDS_P2;PMS_P1;PMS_P2;Temp;Humidity;BMP_temperature;BMP_pressure;BME280_temperature;BME280_humidity;BME280_pressure;Samples;Min_cycle;Max_cycle;Signal;HPM_P1;HPM_P2
2023/05/30 00:01:55;;;;;;;15.02;3.45;;;;;;;12.85;64.20;102631.13;7390771;19;20011;-52
2023/05/30 00:04:23;;;;;;;14.23;3.75;;;;;;;12.81;64.52;102633.06;7391417;19;20026;-54
2023/05/30 00:06:51;;;;;;;13.82;3.50;;;;;;;12.78;64.58;102632.38;7389040;19;20026;-50
2023/05/30 00:09:19;;;;;;;21.27;3.72;;;;;;;12.79;64.94;102629.66;7390927;19;20078;-52
2023/05/30 00:11:48;;;;;;;14.02;3.75;;;;;;;12.76;64.64;102629.81;7389400;19;20014;-49
2023/05/30 00:14:20;;;;;;;15.15;3.75;;;;;;;12.79;64.82;102631.47;7391063;19;20046;-49
2023/05/30 00:16:47;;;;;;;13.98;3.65;;;;;;;12.76;64.81;102637.78;7389302;19;20519;-54
2023/05/30 00:19:15;;;;;;;16.42;3.67;;;;;;;12.83;64.46;102631.22;7391430;19;20357;-51
2023/05/30 00:21:42;;;;;;;14.35;3.60;;;;;;;12.79;64.46;102645.59;7390925;19;20370;-53
2023/05/30 00:24:11;;;;;;;16.45;3.95;;;;;;;12.80;64.50;102644.66;7390602;19;20506;-47
2023/05/30 00:26:38;;;;;;;14.35;3.83;;;;;;;12.78;64.79;102651.88;7387694;19;20018;-47
2023/05/30 00:29:05;;;;;;;15.00;3.83;;;;;;;12.75;64.89;102648.50;7388973;19;20023;-50
2023/05/30 00:31:32;;;;;;;13.73;3.20;;;;;;;12.72;64.88;102649.53;7390286;19;20015;-48
2023/05/30 00:33:59;;;;;;;13.73;3.47;;;;;;;12.73;64.72;102640.59;7390695;19;20519;-49
2023/05/30 00:36:27;;;;;;;15.65;3.35;;;;;;;12.70;65.01;102648.72;7387562;19;20406;-49
2023/05/30 00:38:54;;;;;;;15.82;3.90;;;;;;;12.65;65.25;102645.47;7389572;19;20049;-48
2023/05/30 00:41:21;;;;;;;13.85;3.35;;;;;;;12.74;64.88;102655.59;7388666;19;20093;-50
2023/05/30 00:43:48;;;;;;;11.07;3.40;;;;;;;12.68;65.16;102647.97;7390426;19;20018;-50
2023/05/30 00:46:16;;;;;;;15.85;4.30;;;;;;;12.69;65.08;102653.19;7388733;19;20021;-49
2023/05/30 00:48:43;;;;;;;14.15;3.45;;;;;;;12.65;65.22;102653.44;7391923;19;20498;-48
2023/05/30 00:51:11;;;;;;;14.27;3.70;;;;;;;12.51;65.63;102646.16;7397532;19;20019;-50
2023/05/30 00:53:41;;;;;;;13.95;3.63;;;;;;;12.58;65.65;102644.06;7397665;19;20127;-49
2023/05/30 00:56:09;;;;;;;14.27;3.88;;;;;;;12.61;65.30;102642.09;7395017;19;20018;-48
2023/05/30 00:58:38;;;;;;;13.98;3.42;;;;;;;12.53;65.69;102646.09;7398181;19;20649;-50
2023/05/30 01:01:06;;;;;;;12.88;3.47;;;;;;;12.47;65.80;102652.56;7395623;19;20054;-50
2023/05/30 01:03:33;;;;;;;15.68;3.63;;;;;;;12.49;65.92;102652.53;7397775;19;20018;-48
2023/05/30 01:06:03;;;;;;;12.10;3.15;;;;;;;12.57;65.57;102648.53;7395035;19;20086;-53
2023/05/30 01:08:30;;;;;;;13.98;3.20;;;;;;;12.54;65.57;102650.47;7397114;19;20018;-53
2023/05/30 01:11:15;;;;;;;12.75;3.47;;;;;;;12.53;66.04;102648.75;7397583;19;20192;-50
2023/05/30 01:14:08;;;;;;;13.75;3.90;;;;;;;12.55;65.83;102644.22;7397977;19;20022;-49
2023/05/30 01:16:49;;;;;;;15.10;3.50;;;;;;;12.54;66.11;102634.53;7394247;19;20014;-49
2023/05/30 01:19:23;;;;;;;16.55;3.85;;;;;;;12.55;65.82;102637.09;7397485;19;20059;-53
2023/05/30 01:21:59;;;;;;;12.70;3.22;;;;;;;12.57;65.82;102639.69;7393887;19;20018;-52
2023/05/30 01:24:41;;;;;;;15.32;4.13;;;;;;;12.53;66.16;102630.16;7395270;19;20064;-50
2023/05/30 01:27:27;;;;;;;14.20;3.50;;;;;;;12.50;65.97;102632.97;7396797;19;20021;-54
2023/05/30 01:29:56;;;;;;;11.85;3.08;;;;;;;12.49;66.40;102634.78;7396402;19;20019;-54
2023/05/30 01:32:24;;;;;;;14.57;3.70;;;;;;;12.52;66.03;102637.28;7396992;19;20014;-48
2023/05/30 01:34:53;;;;;;;13.40;3.72;;;;;;;12.43;66.46;102638.59;7395854;19;20018;-48
2023/05/30 01:37:20;;;;;;;15.80;3.38;;;;;;;12.42;66.54;102636.03;7396188;19;20023;-48
2023/05/30 01:39:47;;;;;;;13.10;3.90;;;;;;;12.48;66.47;102635.72;7395620;19;20019;-48
2023/05/30 01:42:20;;;;;;;13.30;3.72;;;;;;;12.42;66.68;102638.69;7395942;19;20366;-49
2023/05/30 01:45:26;;;;;;;15.25;3.75;;;;;;;12.43;66.74;102645.69;7395236;19;20089;-50
2023/05/30 01:48:12;;;;;;;14.88;3.72;;;;;;;12.41;66.70;102635.16;7392432;19;20018;-48
2023/05/30 01:50:47;;;;;;;11.77;3.15;;;;;;;12.40;66.77;102638.78;7395202;19;20038;-48
2023/05/30 01:53:26;;;;;;;13.38;3.65;;;;;;;12.39;66.75;102646.81;7396515;19;20086;-52
2023/05/30 01:55:55;;;;;;;14.85;3.95;;;;;;;12.27;67.24;102650.09;7393644;19;20018;-46
2023/05/30 01:58:23;;;;;;;14.65;3.60;;;;;;;12.38;67.12;102659.22;7395490;19;20015;-48
2023/05/30 02:00:53;;;;;;;13.65;3.63;;;;;;;12.42;66.75;102655.47;7394359;19;20348;-50
2023/05/30 02:03:24;;;;;;;12.90;3.70;;;;;;;12.34;66.96;102655.00;7396486;19;20015;-52
2023/05/30 02:05:51;;;;;;;13.73;3.50;;;;;;;12.28;67.38;102652.66;7392163;19;20026;-50
2023/05/30 02:08:18;;;;;;;13.10;3.42;;;;;;;12.38;67.00;102656.56;7395473;19;20021;-48
2023/05/30 02:10:45;;;;;;;12.52;3.30;;;;;;;12.43;66.92;102645.69;7394725;19;20033;-49
2023/05/30 02:13:12;;;;;;;13.82;3.53;;;;;;;12.29;67.03;102657.06;7394971;19;20484;-48
2023/05/30 02:15:40;;;;;;;14.10;3.75;;;;;;;12.31;67.14;102657.81;7393322;19;20022;-48
2023/05/30 02:18:08;;;;;;;17.67;3.42;;;;;;;12.30;67.32;102658.75;7395284;19;20014;-48
2023/05/30 02:20:36;;;;;;;15.32;3.72;;;;;;;12.35;67.05;102654.06;7394374;19;20015;-47
2023/05/30 02:23:03;;;;;;;14.30;3.40;;;;;;;12.38;67.05;102661.03;7395212;19;20078;-47
2023/05/30 02:25:30;;;;;;;16.13;3.70;;;;;;;12.30;66.93;102645.47;7392981;19;20043;-47
2023/05/30 02:27:57;;;;;;;12.65;3.83;;;;;;;12.33;66.87;102660.41;7394158;19;20509;-46
2023/05/30 02:30:24;;;;;;;12.65;3.38;;;;;;;12.31;67.04;102667.59;7393573;19;20038;-50
2023/05/30 02:32:51;;;;;;;13.27;3.45;;;;;;;12.27;67.35;102669.53;7394125;19;20024;-50
2023/05/30 02:35:19;;;;;;;10.35;3.47;;;;;;;12.25;67.49;102671.44;7393673;19;20082;-47
2023/05/30 02:37:46;;;;;;;13.90;4.07;;;;;;;12.26;67.43;102672.28;7392396;19;20010;-47
2023/05/30 02:40:13;;;;;;;12.55;3.45;;;;;;;12.25;67.40;102675.84;7393730;19;20063;-48
2023/05/30 02:42:40;;;;;;;14.63;3.97;;;;;;;12.16;67.62;102679.84;7394893;19;20026;-47
2023/05/30 02:45:08;;;;;;;14.85;3.97;;;;;;;12.05;67.87;102677.69;7393555;19;20025;-46
2023/05/30 02:47:35;;;;;;;13.23;3.90;;;;;;;12.11;68.11;102676.56;7393485;19;20464;-48
2023/05/30 02:50:02;;;;;;;14.57;3.60;;;;;;;12.19;67.69;102674.38;7393869;19;20011;-46
2023/05/30 02:52:30;;;;;;;15.77;3.72;;;;;;;12.27;67.18;102681.97;7393792;19;20495;-47
2023/05/30 02:54:57;;;;;;;10.90;3.90;;;;;;;12.27;67.32;102681.97;7393605;19;20022;-46
2023/05/30 02:57:25;;;;;;;14.38;3.92;;;;;;;12.17;67.54;102685.09;7393265;19;20015;-47
2023/05/30 02:59:52;;;;;;;12.43;3.90;;;;;;;12.07;67.95;102686.47;7393182;19;20398;-47
2023/05/30 03:02:19;;;;;;;12.02;3.60;;;;;;;11.77;69.05;102686.13;7390949;19;20010;-51
2023/05/30 03:04:46;;;;;;;13.75;4.32;;;;;;;11.94;68.59;102687.97;7393323;19;20018;-51
2023/05/30 03:07:17;;;;;;;11.20;3.97;;;;;;;11.95;68.69;102681.75;7391160;19;20022;-46
2023/05/30 03:09:45;;;;;;;13.98;3.92;;;;;;;11.76;69.37;102681.75;7393038;19;20475;-48
2023/05/30 03:12:12;;;;;;;13.73;4.10;;;;;;;11.81;69.26;102681.53;7391479;19;20032;-47
2023/05/30 03:14:40;;;;;;;13.15;3.53;;;;;;;11.86;69.35;102682.19;7392345;19;20018;-46
2023/05/30 03:17:08;;;;;;;14.38;4.53;;;;;;;11.95;68.97;102690.56;7388931;19;20053;-48
2023/05/30 03:19:36;;;;;;;15.65;4.15;;;;;;;12.02;68.57;102690.25;7390885;19;20486;-47
2023/05/30 03:22:03;;;;;;;14.30;4.15;;;;;;;12.12;68.27;102687.09;7391282;19;20018;-51
2023/05/30 03:24:30;;;;;;;15.38;4.20;;;;;;;12.19;68.33;102680.53;7392537;19;20081;-51
2023/05/30 03:26:57;;;;;;;14.85;4.13;;;;;;;12.28;67.85;102684.53;7391180;19;20043;-47
2023/05/30 03:29:25;;;;;;;12.30;4.35;;;;;;;12.28;67.90;102687.19;7390606;19;20018;-49
2023/05/30 03:31:53;;;;;;;14.00;4.03;;;;;;;12.29;68.06;102686.28;7392059;19;20078;-48
2023/05/30 03:34:21;;;;;;;14.55;3.50;;;;;;;12.34;67.96;102688.69;7392414;19;20015;-49
2023/05/30 03:36:52;;;;;;;13.25;3.42;;;;;;;12.37;67.53;102696.50;7390857;19;20018;-49
2023/05/30 03:39:20;;;;;;;15.60;4.57;;;;;;;12.38;67.84;102696.44;7392475;19;20027;-48
2023/05/30 03:41:47;;;;;;;15.63;4.20;;;;;;;12.46;67.28;102693.38;7391147;19;20174;-49
2023/05/30 03:44:14;;;;;;;12.43;3.50;;;;;;;12.52;67.31;102703.72;7390919;19;20010;-48
2023/05/30 03:46:42;;;;;;;16.30;4.10;;;;;;;12.61;67.26;102699.72;7390458;19;20022;-46
2023/05/30 03:49:09;;;;;;;15.82;4.60;;;;;;;12.65;67.08;102706.59;7391334;19;20059;-48
2023/05/30 03:51:36;;;;;;;16.08;4.00;;;;;;;12.64;67.16;102705.75;7391948;19;20021;-47
2023/05/30 03:54:03;;;;;;;13.50;4.07;;;;;;;12.72;67.10;102708.00;7391371;19;20015;-47
2023/05/30 03:56:30;;;;;;;11.63;3.97;;;;;;;12.78;66.62;102707.72;7389901;19;20022;-48
2023/05/30 03:58:57;;;;;;;11.32;3.40;;;;;;;12.68;67.26;102704.66;7391105;19;20034;-47
2023/05/30 04:01:25;;;;;;;14.10;3.85;;;;;;;12.71;67.11;102706.31;7390564;19;20047;-49
2023/05/30 04:03:52;;;;;;;15.25;4.05;;;;;;;12.76;67.11;102701.59;7389622;19;20024;-48
2023/05/30 04:06:19;;;;;;;19.17;4.32;;;;;;;12.80;66.97;102695.19;7390307;19;20018;-47
2023/05/30 04:08:46;;;;;;;15.68;3.95;;;;;;;12.85;66.94;102709.09;7390622;19;20014;-47
2023/05/30 04:11:14;;;;;;;16.65;4.38;;;;;;;12.85;66.68;102708.22;7391651;19;20031;-47
2023/05/30 04:13:41;;;;;;;14.82;3.80;;;;;;;12.80;67.02;102713.78;7391317;19;20022;-46
2023/05/30 04:16:08;;;;;;;14.65;3.95;;;;;;;12.79;67.20;102713.88;7388267;19;20021;-47
2023/05/30 04:18:43;;;;;;;14.80;3.88;;;;;;;12.88;67.03;102713.38;7390663;19;20022;-47
2023/05/30 04:21:14;;;;;;;14.80;3.95;;;;;;;12.90;67.17;102725.69;7390037;19;20024;-47
2023/05/30 04:23:41;;;;;;;13.45;3.53;;;;;;;12.97;66.98;102723.53;7388018;19;20025;-47
2023/05/30 04:26:11;;;;;;;16.15;4.57;;;;;;;13.01;67.17;102718.91;7389723;19;20082;-47
2023/05/30 04:28:39;;;;;;;16.00;3.70;;;;;;;13.02;67.18;102723.31;7390066;19;20329;-46
2023/05/30 04:31:06;;;;;;;13.80;4.07;;;;;;;13.06;67.26;102722.22;7390862;19;20022;-46
2023/05/30 04:33:48;;;;;;;18.50;4.32;;;;;;;13.06;67.21;102731.06;7390245;19;20502;-47
2023/05/30 04:36:19;;;;;;;15.85;3.90;;;;;;;13.12;67.13;102727.19;7388602;19;20046;-47
2023/05/30 04:38:52;;;;;;;15.93;3.95;;;;;;;13.13;67.14;102732.47;7390057;19;20066;-47
2023/05/30 04:41:24;;;;;;;18.20;4.68;;;;;;;13.11;67.48;102728.16;7388329;19;20023;-47
2023/05/30 04:43:54;;;;;;;15.07;4.07;;;;;;;13.17;67.39;102726.03;7389785;19;20011;-48
2023/05/30 04:46:21;;;;;;;11.77;3.65;;;;;;;13.24;67.20;102731.94;7388697;19;20044;-51
2023/05/30 04:48:51;;;;;;;15.45;3.78;;;;;;;13.26;67.22;102734.50;7389571;19;20035;-46
2023/05/30 04:51:20;;;;;;;13.77;3.90;;;;;;;13.29;67.38;102734.34;7388162;19;20030;-48
2023/05/30 04:53:48;;;;;;;14.02;4.05;;;;;;;13.30;67.38;102730.72;7390307;19;20429;-49
2023/05/30 04:56:16;;;;;;;13.73;3.90;;;;;;;13.38;67.24;102721.38;7388680;19;20039;-51
2023/05/30 04:58:44;;;;;;;14.70;4.22;;;;;;;13.34;67.63;102725.16;7387795;19;20018;-51
2023/05/30 05:01:13;;;;;;;17.33;4.63;;;;;;;13.39;67.64;102725.78;7388686;19;20495;-46
2023/05/30 05:03:41;;;;;;;18.45;4.05;;;;;;;13.45;67.41;102723.72;7389717;19;20018;-49
2023/05/30 05:06:09;;;;;;;15.15;3.88;;;;;;;13.49;67.42;102725.28;7388472;19;20018;-46
2023/05/30 05:08:37;;;;;;;14.23;4.25;;;;;;;13.51;67.49;102726.06;7389281;19;20023;-47
2023/05/30 05:11:06;;;;;;;15.52;4.10;;;;;;;13.52;67.75;102720.66;7389898;19;20030;-49
2023/05/30 05:13:33;;;;;;;15.52;4.18;;;;;;;13.60;67.73;102730.88;7390162;19;20334;-50
2023/05/30 05:16:04;;;;;;;15.90;4.22;;;;;;;13.59;67.83;102722.03;7386457;19;20022;-50
2023/05/30 05:18:32;;;;;;;14.23;3.92;;;;;;;13.58;67.98;102728.31;7389114;19;20022;-52
2023/05/30 05:21:00;;;;;;;16.17;3.90;;;;;;;13.57;68.29;102715.06;7389400;19;20512;-50
2023/05/30 05:23:29;;;;;;;11.25;3.35;;;;;;;13.57;68.25;102717.72;7388846;19;20018;-47
2023/05/30 05:25:56;;;;;;;12.13;3.45;;;;;;;13.59;67.94;102722.03;7387667;19;20030;-47
2023/05/30 05:28:24;;;;;;;14.13;3.78;;;;;;;13.65;68.11;102718.16;7388604;19;20022;-53
2023/05/30 05:30:51;;;;;;;14.63;3.78;;;;;;;13.62;68.29;102720.97;7387381;19;20409;-51
2023/05/30 05:33:19;;;;;;;17.50;3.95;;;;;;;13.68;68.22;102723.31;7388801;19;20014;-51
2023/05/30 05:35:46;;;;;;;13.52;3.17;;;;;;;13.63;68.17;102726.25;7394645;19;20131;-52
2023/05/30 05:38:13;;;;;;;13.43;3.58;;;;;;;13.61;68.47;102735.25;7396357;19;20026;-51
2023/05/30 05:40:41;;;;;;;13.38;3.17;;;;;;;13.57;68.83;102731.03;7396341;19;20479;-52
2023/05/30 05:43:08;;;;;;;12.10;3.45;;;;;;;13.49;69.05;102734.13;7392307;19;20476;-52
2023/05/30 05:45:35;;;;;;;13.73;3.35;;;;;;;13.60;68.93;102730.88;7394445;19;20021;-52
2023/05/30 05:48:03;;;;;;;13.88;3.20;;;;;;;13.67;69.10;102729.59;7396180;19;20078;-52
2023/05/30 05:50:30;;;;;;;11.13;3.03;;;;;;;13.73;68.94;102733.72;7395707;19;20368;-51
2023/05/30 05:52:57;;;;;;;10.82;2.95;;;;;;;13.73;68.95;102733.72;7395685;19;20034;-52
2023/05/30 05:55:24;;;;;;;12.23;3.00;;;;;;;13.76;68.85;102730.88;7394196;19;20028;-47
2023/05/30 05:57:52;;;;;;;11.98;3.50;;;;;;;13.76;68.95;102734.41;7395113;19;20074;-51
2023/05/30 06:00:23;;;;;;;12.77;3.20;;;;;;;13.75;69.21;102739.81;7394445;19;20086;-53
2023/05/30 06:02:50;;;;;;;12.15;3.20;;;;;;;13.75;69.30;102742.50;7393527;19;20021;-50
2023/05/30 06:05:18;;;;;;;10.25;2.95;;;;;;;13.75;69.52;102740.69;7395087;19;20060;-50
2023/05/30 06:07:45;;;;;;;12.23;3.13;;;;;;;13.78;69.27;102740.53;7395674;19;20364;-50
2023/05/30 06:10:12;;;;;;;9.63;2.50;;;;;;;13.73;69.59;102739.03;7394778;19;20039;-53
2023/05/30 06:12:40;;;;;;;8.63;2.58;;;;;;;13.75;69.53;102735.34;7395251;19;20043;-50
2023/05/30 06:15:07;;;;;;;12.10;2.80;;;;;;;13.80;69.35;102741.28;7394527;19;20022;-51
2023/05/30 06:17:35;;;;;;;10.10;2.35;;;;;;;13.81;69.38;102737.69;7395301;19;20011;-48
2023/05/30 06:20:03;;;;;;;10.70;3.00;;;;;;;13.82;69.32;102739.41;7394975;19;20018;-51
2023/05/30 06:22:30;;;;;;;10.90;2.80;;;;;;;13.78;69.51;102743.19;7393094;19;20017;-51
2023/05/30 06:24:57;;;;;;;9.23;2.55;;;;;;;13.79;69.30;102746.69;7391531;19;20057;-53
2023/05/30 06:27:24;;;;;;;10.85;2.45;;;;;;;13.83;69.21;102746.44;7394640;19;20015;-51
2023/05/30 06:29:55;;;;;;;8.48;2.40;;;;;;;13.86;69.18;102751.59;7394108;19;20015;-50
2023/05/30 06:32:22;;;;;;;10.15;2.60;;;;;;;13.84;69.06;102750.81;7393976;19;20042;-52
2023/05/30 06:34:49;;;;;;;7.47;2.50;;;;;;;13.85;68.99;102749.00;7395656;19;20349;-53
2023/05/30 06:37:16;;;;;;;7.22;2.05;;;;;;;13.92;68.61;102752.19;7394542;19;20026;-52
2023/05/30 06:39:43;;;;;;;9.38;2.60;;;;;;;13.89;68.77;102756.75;7391761;19;20035;-48
2023/05/30 06:42:11;;;;;;;9.23;2.88;;;;;;;13.92;69.02;102757.53;7392569;19;20025;-52
2023/05/30 06:44:38;;;;;;;11.05;2.85;;;;;;;13.89;68.93;102763.91;7393578;19;20042;-51
2023/05/30 06:47:06;;;;;;;12.05;3.10;;;;;;;13.92;69.09;102761.03;7389437;19;20011;-51
2023/05/30 06:49:33;;;;;;;7.60;2.55;;;;;;;13.98;69.01;102754.53;7393445;19;20043;-52
2023/05/30 06:52:00;;;;;;;9.13;2.90;;;;;;;14.05;68.54;102751.44;7393313;19;20023;-52
2023/05/30 06:54:27;;;;;;;8.20;2.58;;;;;;;14.09;68.76;102754.78;7396156;19;20018;-53
2023/05/30 06:56:54;;;;;;;11.13;3.22;;;;;;;14.05;68.95;102761.22;7391376;19;20340;-51
2023/05/30 06:59:21;;;;;;;13.60;3.50;;;;;;;14.02;69.06;102758.75;7393129;19;20086;-48
2023/05/30 07:01:48;;;;;;;10.20;3.30;;;;;;;13.99;68.85;102766.88;7392785;19;20019;-50
2023/05/30 07:04:16;;;;;;;13.70;3.67;;;;;;;14.04;69.28;102764.81;7391444;19;20014;-52
2023/05/30 07:06:43;;;;;;;12.70;3.53;;;;;;;14.01;68.86;102763.22;7391096;19;20018;-51
2023/05/30 07:09:11;;;;;;;10.75;3.65;;;;;;;13.97;69.01;102761.66;7392071;19;20039;-48
2023/05/30 07:11:38;;;;;;;11.98;3.78;;;;;;;13.98;68.90;102765.19;7393690;19;20043;-48
2023/05/30 07:14:05;;;;;;;8.23;3.25;;;;;;;13.96;69.16;102765.25;7392670;19;20014;-50
2023/05/30 07:16:32;;;;;;;15.40;4.20;;;;;;;14.02;68.65;102759.59;7390918;19;20028;-51
2023/05/30 07:19:00;;;;;;;11.32;3.50;;;;;;;14.06;68.40;102765.59;7392388;19;20020;-50
2023/05/30 07:21:39;;;;;;;10.02;3.13;;;;;;;14.04;68.44;102765.72;7392278;19;20025;-52
2023/05/30 07:24:07;;;;;;;10.50;2.92;;;;;;;14.04;68.26;102776.38;7392805;19;20010;-50
2023/05/30 07:26:35;;;;;;;12.43;3.30;;;;;;;14.06;68.55;102778.94;7390966;19;20043;-49
2023/05/30 07:29:02;;;;;;;11.15;3.47;;;;;;;14.10;68.28;102770.66;7392224;19;20483;-51
2023/05/30 07:31:29;;;;;;;11.43;3.78;;;;;;;14.05;68.43;102769.22;7394997;19;20060;-53
2023/05/30 07:33:57;;;;;;;9.02;3.00;;;;;;;14.14;68.46;102771.34;7392488;19;20018;-52
2023/05/30 07:36:24;;;;;;;10.93;3.42;;;;;;;14.13;68.26;102765.19;7390537;19;20021;-49
2023/05/30 07:38:51;;;;;;;11.95;3.38;;;;;;;14.25;68.23;102768.09;7391101;19;20026;-48
2023/05/30 07:41:20;;;;;;;9.40;3.60;;;;;;;14.23;68.07;102770.84;7391873;19;20018;-49
2023/05/30 07:43:47;;;;;;;9.95;2.90;;;;;;;14.23;67.71;102778.84;7389308;19;20495;-48
2023/05/30 07:46:14;;;;;;;9.80;3.08;;;;;;;14.25;67.69;102773.41;7389090;19;20082;-49
2023/05/30 07:48:41;;;;;;;11.00;2.97;;;;;;;14.25;67.83;102776.94;7390760;19;20018;-48
2023/05/30 07:51:09;;;;;;;10.07;2.85;;;;;;;14.34;67.68;102784.41;7390213;19;20061;-49
2023/05/30 07:53:36;;;;;;;10.82;3.25;;;;;;;14.34;67.49;102779.06;7391666;19;20033;-47
2023/05/30 07:56:04;;;;;;;9.02;2.90;;;;;;;14.33;67.59;102780.03;7388254;19;20375;-47
2023/05/30 07:58:31;;;;;;;9.60;2.83;;;;;;;14.35;67.43;102779.97;7390092;19;20140;-48
2023/05/30 08:00:59;;;;;;;8.40;2.60;;;;;;;14.37;67.36;102778.03;7391122;19;20101;-50
2023/05/30 08:03:26;;;;;;;6.38;2.35;;;;;;;14.48;66.82;102769.44;7389777;19;20045;-47
2023/05/30 08:05:54;;;;;;;7.43;2.45;;;;;;;14.53;66.68;102775.38;7390415;19;20420;-48
2023/05/30 08:08:21;;;;;;;8.35;2.95;;;;;;;14.46;66.65;102772.22;7390681;19;20022;-53
2023/05/30 08:10:49;;;;;;;9.77;2.80;;;;;;;14.47;66.37;102768.59;7390271;19;20015;-54
2023/05/30 08:13:18;;;;;;;7.00;2.55;;;;;;;14.52;66.20;102777.19;7391349;19;20039;-49
2023/05/30 08:15:45;;;;;;;7.07;2.58;;;;;;;14.43;66.30;102774.19;7390324;19;20022;-52
2023/05/30 08:18:14;;;;;;;9.27;2.80;;;;;;;14.55;66.15;102774.34;7391121;19;20014;-51
2023/05/30 08:20:41;;;;;;;7.93;2.70;;;;;;;14.65;65.80;102772.00;7391883;19;20035;-51
2023/05/30 08:23:09;;;;;;;7.18;2.60;;;;;;;14.69;65.74;102770.91;7389532;19;20026;-50
2023/05/30 08:25:42;;;;;;;9.27;3.47;;;;;;;14.65;65.92;102772.00;7390093;19;20032;-50
2023/05/30 08:28:12;;;;;;;6.97;2.80;;;;;;;14.56;65.95;102770.75;7390960;19;20022;-49
2023/05/30 08:30:48;;;;;;;10.15;2.97;;;;;;;14.54;66.20;102779.78;7390510;19;20022;-52
2023/05/30 08:33:16;;;;;;;8.00;2.85;;;;;;;14.57;66.21;102774.25;7390684;19;20023;-52
2023/05/30 08:35:45;;;;;;;9.70;3.13;;;;;;;14.53;66.58;102783.38;7388869;19;20353;-50
2023/05/30 08:38:13;;;;;;;8.05;2.65;;;;;;;14.60;66.44;102777.59;7390727;19;20486;-49
2023/05/30 08:40:42;;;;;;;10.07;2.90;;;;;;;14.57;66.65;102776.94;7389469;19;20019;-52
2023/05/30 08:43:09;;;;;;;9.52;2.75;;;;;;;14.51;66.99;102778.16;7388690;19;20531;-50
2023/05/30 08:45:38;;;;;;;6.97;2.70;;;;;;;14.53;67.12;102772.72;7388731;19;20023;-47
2023/05/30 08:48:06;;;;;;;5.93;2.47;;;;;;;14.48;67.20;102778.28;7389972;19;20026;-50
2023/05/30 08:50:36;;;;;;;8.30;2.55;;;;;;;14.53;67.18;102781.56;7389340;19;20019;-48
2023/05/30 08:53:08;;;;;;;7.05;2.40;;;;;;;14.59;66.90;102780.38;7390196;19;20018;-50
2023/05/30 08:55:54;;;;;;;6.82;2.30;;;;;;;14.69;66.24;102778.91;7389130;19;20105;-53
2023/05/30 08:58:29;;;;;;;7.53;2.38;;;;;;;14.76;65.88;102774.03;7389805;19;20389;-52
2023/05/30 09:00:57;;;;;;;7.88;2.40;;;;;;;14.80;66.17;102776.44;7387873;19;20026;-48
2023/05/30 09:03:27;;;;;;;7.40;2.30;;;;;;;14.82;65.89;102779.88;7390196;19;20011;-48
2023/05/30 09:05:55;;;;;;;7.38;2.15;;;;;;;14.79;65.91;102784.53;7388645;19;20032;-49
2023/05/30 09:08:26;;;;;;;7.93;2.45;;;;;;;14.77;65.63;102781.97;7388733;19;20014;-48
2023/05/30 09:10:54;;;;;;;5.97;2.42;;;;;;;14.69;65.88;102784.22;7397533;19;20044;-47
2023/05/30 09:13:22;;;;;;;7.07;2.38;;;;;;;14.67;65.96;102782.59;7397224;19;20030;-50
2023/05/30 09:15:49;;;;;;;5.63;2.38;;;;;;;14.68;66.15;102794.97;7393835;19;20077;-49
2023/05/30 09:18:16;;;;;;;6.22;2.53;;;;;;;14.86;65.62;102805.44;7396426;19;20509;-51
2023/05/30 09:20:44;;;;;;;7.97;2.50;;;;;;;15.04;65.35;102800.81;7394894;19;20430;-47
2023/05/30 09:23:11;;;;;;;6.85;2.45;;;;;;;15.21;64.94;102798.94;7394975;19;20036;-53
2023/05/30 09:25:47;;;;;;;4.47;1.75;;;;;;;15.36;63.95;102798.84;7393356;19;20405;-48
2023/05/30 09:28:14;;;;;;;5.80;2.10;;;;;;;15.40;63.60;102796.00;7396123;19;20519;-49
2023/05/30 09:30:54;;;;;;;5.25;2.05;;;;;;;15.38;63.76;102801.44;7396172;19;20035;-50
2023/05/30 09:33:47;;;;;;;5.30;1.88;;;;;;;15.25;64.22;102806.66;7395860;19;20026;-49
2023/05/30 09:36:19;;;;;;;3.92;2.00;;;;;;;15.09;64.87;102803.19;7396758;19;20025;-52
2023/05/30 09:38:52;;;;;;;3.50;1.70;;;;;;;15.01;65.09;102801.00;7395493;19;20033;-50
2023/05/30 09:41:20;;;;;;;4.35;1.63;;;;;;;15.08;65.01;102799.69;7394231;19;20044;-52
2023/05/30 09:43:52;;;;;;;4.85;1.60;;;;;;;15.07;64.49;102799.75;7395292;19;20043;-48
2023/05/30 09:46:29;;;;;;;4.00;1.50;;;;;;;15.21;64.00;102798.94;7392809;19;20019;-52
2023/05/30 09:48:57;;;;;;;7.47;1.50;;;;;;;15.27;63.67;102801.25;7395104;19;20026;-49
2023/05/30 09:51:25;;;;;;;1.67;1.20;;;;;;;15.35;63.02;102805.16;7398984;19;20039;-51
2023/05/30 09:54:03;;;;;;;3.92;1.50;;;;;;;15.46;62.37;102806.31;7395827;19;20121;-51
2023/05/30 09:56:37;;;;;;;3.53;1.25;;;;;;;15.43;62.43;102804.69;7393418;19;20494;-49
2023/05/30 09:59:08;;;;;;;;;;;;;;;15.36;62.65;102809.53;7393439;19;20040;-51
2023/05/30 10:01:42;;;;;;;3.22;1.02;;;;;;;15.35;62.91;102805.16;7395255;19;19925;-52
2023/05/30 10:04:23;;;;;;;2.70;1.20;;;;;;;15.41;62.61;102805.72;7392994;19;20552;-51
2023/05/30 10:06:53;;;;;;;5.40;1.50;;;;;;;15.50;62.51;102808.69;7393177;19;20090;-51
2023/05/30 10:09:21;;;;;;;2.35;1.20;;;;;;;15.52;62.25;102808.59;7394845;19;20033;-49
2023/05/30 10:11:50;;;;;;;1.92;1.40;;;;;;;15.53;61.73;102800.50;7393439;19;20043;-50
2023/05/30 10:14:18;;;;;;;3.22;1.20;;;;;;;15.60;61.68;102806.31;7395163;19;20019;-50
2023/05/30 10:17:00;;;;;;;3.35;1.10;;;;;;;15.78;61.26;102797.19;7391061;19;20019;-49
2023/05/30 10:19:44;;;;;;;2.45;1.08;;;;;;;15.90;60.74;102800.88;7394790;19;20022;-50
2023/05/30 10:22:13;;;;;;;5.57;1.50;;;;;;;16.03;60.19;102807.19;7392620;19;20021;-49
2023/05/30 10:24:46;;;;;;;2.85;1.20;;;;;;;16.04;59.73;102803.53;7394597;19;20389;-48
2023/05/30 10:27:18;;;;;;;2.42;1.25;;;;;;;16.11;59.24;102800.50;7390421;19;20169;-49
2023/05/30 10:29:47;;;;;;;3.75;1.20;;;;;;;16.18;58.64;102794.66;7394142;19;20019;-52
2023/05/30 10:32:21;;;;;;;2.55;1.30;;;;;;;16.30;58.43;102798.34;7394231;19;20025;-50
2023/05/30 10:34:59;;;;;;;3.22;1.42;;;;;;;16.26;58.77;102797.69;7392433;19;20483;-49
2023/05/30 10:37:27;;;;;;;2.70;1.20;;;;;;;16.20;59.17;102797.22;7397530;19;20501;-49
2023/05/30 10:40:16;;;;;;;1.95;1.30;;;;;;;16.25;59.08;102795.09;7393957;19;20025;-50
2023/05/30 10:42:53;;;;;;;4.70;1.33;;;;;;;16.32;58.59;102789.25;7393492;19;20060;-49
2023/05/30 10:45:27;;;;;;;1.92;1.25;;;;;;;16.24;58.33;102793.38;7391918;19;20026;-50
2023/05/30 10:48:29;;;;;;;2.75;1.20;;;;;;;16.17;58.41;102792.91;7392499;19;20029;-51
2023/05/30 10:50:59;;;;;;;2.00;1.10;;;;;;;16.08;59.19;102796.19;7393586;19;20026;-48
2023/05/30 10:53:27;;;;;;;3.47;1.52;;;;;;;16.17;58.92;102792.91;7393479;19;20015;-47
2023/05/30 10:55:55;;;;;;;3.65;1.10;;;;;;;16.28;58.92;102790.41;7391216;19;20022;-50
2023/05/30 10:58:42;;;;;;;4.07;1.40;;;;;;;16.39;58.91;102789.69;7393182;19;20130;-48
2023/05/30 11:01:21;;;;;;;5.80;1.63;;;;;;;16.35;58.51;102784.66;7393628;19;20487;-49
2023/05/30 11:03:57;;;;;;;2.25;1.38;;;;;;;16.36;58.16;102786.38;7389194;19;20018;-49
2023/05/30 11:06:31;;;;;;;2.13;1.17;;;;;;;16.39;57.94;102784.34;7390349;19;20401;-49
2023/05/30 11:09:07;;;;;;;3.70;1.40;;;;;;;16.33;57.98;102777.59;7392565;19;20010;-51
2023/05/30 11:11:40;;;;;;;3.70;1.42;;;;;;;16.32;58.37;102783.03;7393496;19;20014;-54
2023/05/30 11:14:10;;;;;;;3.85;1.25;;;;;;;16.27;58.48;102780.66;7391481;19;20022;-53
2023/05/30 11:17:08;;;;;;;2.20;1.25;;;;;;;16.36;57.99;102781.88;7389147;19;20035;-52
2023/05/30 11:19:42;;;;;;;4.50;1.50;;;;;;;16.36;58.57;102789.03;7391359;19;20487;-53
2023/05/30 11:22:15;;;;;;;3.13;1.45;;;;;;;16.42;58.36;102772.59;7393172;19;20018;-52
2023/05/30 11:24:43;;;;;;;2.90;1.00;;;;;;;16.37;58.19;102778.25;7390601;19;20018;-50
2023/05/30 11:27:14;;;;;;;2.85;1.30;;;;;;;16.31;58.63;102779.50;7389406;19;20047;-49
2023/05/30 11:29:48;;;;;;;2.65;1.20;;;;;;;16.34;58.89;102778.47;7392227;19;20018;-50
2023/05/30 11:32:20;;;;;;;2.70;1.10;;;;;;;16.36;58.94;102776.53;7391047;19;20014;-50